»·PEaware :: N66P KHTH-KELY

N66P :: KHTH-KELY

FLIGHT INFORMATION

Flight Status: Arrived
Operator: Privately registered:
United States
More flights under this callsign
Pilot: Scott C. (31939)
Aircraft: CIRRUS SR-22
(SR22)
More flights by this aircraft type
Origin: KHTH Hawthorne Mun
United States
Destination: KELY Ely
United States
More flights between these airports :: More routes between these airports
Route: +KHTH
File this flight plan on PilotEdge
Remarks:
Altitude:
(Current/Filed)
11,500ft
Speed:
(Current/Filed)
0kts
Departed: 18-Oct-20 11:55 AM
Arrived: 18-Oct-20 01:00 PM
Distance/Time
Traveled:
6721nm/1:05
Distance/Time
To Go:
Arrived

Flight Plot

Page will automatically refresh every two minutes.

Flight plan parsing failed; only flown route is shown


Map Options




Map Legend


Flown Route
Filed Route
Departure Airport
Arrival Airport
Navaid (VOR, NDB)
Fix

Horizontal Profiles

Position Reports

Time Latitude Longitude Heading Altitude Ground
Speed
18-Oct-20 11:53 38.656272 -118.232358 74 11907ft 158kts
18-Oct-20 11:54 38.668973 -118.178552 74 11898ft 156kts
18-Oct-20 11:55 38.681565 -118.125317 74 11908ft 157kts
18-Oct-20 11:56 38.694244 -118.071604 74 11904ft 157kts
18-Oct-20 11:57 38.707003 -118.018120 75 11838ft 159kts
18-Oct-20 11:58 38.720606 -117.966065 74 11763ft 151kts
18-Oct-20 11:59 38.733276 -117.914153 74 11761ft 154kts
18-Oct-20 12:00 38.743621 -117.860583 75 11767ft 152kts
18-Oct-20 12:01 38.750764 -117.816210 74 11780ft 111kts
18-Oct-20 12:02 38.758826 -117.768884 75 11753ft 149kts
18-Oct-20 12:03 38.767962 -117.715679 75 11759ft 155kts
18-Oct-20 12:04 38.777459 -117.661345 74 11760ft 157kts
18-Oct-20 12:05 38.787100 -117.606424 74 11761ft 158kts
18-Oct-20 12:06 38.794698 -117.550196 79 11764ft 160kts
18-Oct-20 12:07 38.800642 -117.494133 81 11778ft 155kts
18-Oct-20 12:08 38.804371 -117.438895 81 11820ft 157kts
18-Oct-20 12:09 38.808220 -117.382846 81 11820ft 158kts
18-Oct-20 12:10 38.817508 -117.328006 73 11794ft 154kts
18-Oct-20 12:11 38.826940 -117.273966 74 11835ft 159kts
18-Oct-20 12:12 38.836403 -117.218729 74 11813ft 156kts
18-Oct-20 12:13 38.845424 -117.164487 74 11819ft 155kts
18-Oct-20 12:14 38.854491 -117.110181 74 11817ft 155kts
18-Oct-20 12:15 38.863631 -117.055780 74 11818ft 156kts
18-Oct-20 12:16 38.872853 -117.000811 74 11816ft 157kts
18-Oct-20 12:17 38.882087 -116.945647 74 11816ft 158kts
18-Oct-20 12:18 38.891450 -116.890307 74 11817ft 159kts
18-Oct-20 12:19 38.900715 -116.835299 74 11822ft 157kts
18-Oct-20 12:20 38.909975 -116.780761 74 11814ft 155kts
18-Oct-20 12:21 38.919420 -116.726413 74 11818ft 156kts
18-Oct-20 12:22 38.928946 -116.671555 74 11818ft 157kts
18-Oct-20 12:23 38.938536 -116.616248 74 11817ft 158kts
18-Oct-20 12:24 38.948169 -116.560935 74 11816ft 158kts
18-Oct-20 12:25 38.957782 -116.505515 74 11817ft 159kts
18-Oct-20 12:26 38.967368 -116.450615 74 11814ft 155kts
18-Oct-20 12:27 38.977006 -116.395787 74 11814ft 157kts
18-Oct-20 12:28 38.986603 -116.340817 74 11815ft 157kts
18-Oct-20 12:29 38.995978 -116.286219 74 11816ft 156kts
18-Oct-20 12:30 39.005524 -116.230788 74 11792ft 159kts
18-Oct-20 12:31 39.015051 -116.175605 74 11789ft 157kts
18-Oct-20 12:32 39.024231 -116.120704 72 11789ft 156kts
18-Oct-20 12:33 39.034601 -116.066244 73 11788ft 157kts
18-Oct-20 12:34 39.043694 -116.011129 74 11789ft 158kts
18-Oct-20 12:35 39.052724 -115.955414 74 11792ft 160kts
18-Oct-20 12:36 39.062020 -115.899433 74 11788ft 159kts
18-Oct-20 12:37 39.071266 -115.844173 74 11787ft 157kts
18-Oct-20 12:38 39.080651 -115.788845 74 11780ft 157kts
18-Oct-20 12:39 39.089982 -115.733984 74 11791ft 157kts
18-Oct-20 12:40 39.099104 -115.677973 74 11787ft 160kts
18-Oct-20 12:41 39.107921 -115.621592 74 11788ft 161kts
18-Oct-20 12:42 39.116911 -115.565207 74 11796ft 162kts
18-Oct-20 12:43 39.126141 -115.507870 74 11777ft 162kts
18-Oct-20 12:44 39.135283 -115.451205 74 11795ft 161kts
18-Oct-20 12:45 39.144497 -115.394198 74 11787ft 163kts
18-Oct-20 12:46 39.153821 -115.337502 74 11796ft 161kts
18-Oct-20 12:47 39.163107 -115.280085 74 11783ft 162kts
18-Oct-20 12:48 39.172329 -115.223317 74 11787ft 160kts
18-Oct-20 12:49 39.184627 -115.170716 62 10374ft 152kts
18-Oct-20 12:50 39.191122 -115.116939 79 9098ft 139kts
18-Oct-20 12:51 39.194291 -115.065566 81 8896ft 144kts
18-Oct-20 12:52 39.202138 -115.015646 75 9390ft 144kts
18-Oct-20 12:53 39.209970 -114.964821 74 9448ft 143kts
18-Oct-20 12:54 39.219045 -114.914262 67 9005ft 143kts
18-Oct-20 12:55 39.236273 -114.869905 46 7949ft 121kts
18-Oct-20 12:56 39.259396 -114.851268 5 7324ft 102kts
18-Oct-20 12:57 39.285196 -114.842959 5 6574ft 93kts
18-Oct-20 12:58 39.303658 -114.837420 14 6240ft 42kts
18-Oct-20 12:59 39.308152 -114.834548 186 6230ft 13kts
18-Oct-20 13:00 39.303709 -114.835942 194 6239ft 17kts
18-Oct-20 13:01 39.300315 -114.835757 151 6247ft 5kts
18-Oct-20 13:02 39.300159 -114.835749 193 6247ft 0kts
18-Oct-20 13:03 39.300159 -114.835749 193 6247ft 0kts
18-Oct-20 13:04 39.300159 -114.835749 193 6247ft 0kts
18-Oct-20 13:05 39.300159 -114.835749 193 6247ft 0kts
18-Oct-20 13:06 39.300159 -114.835749 193 6247ft 0kts
18-Oct-20 13:07 0.000408 0.013975 359 3ft 0kts

Navigation Log

Ident Type
Flight plan parsing failed, navigation log unavailable